Time;durP1;ratioP1;P1;durP2;ratioP2;P2;SDS_P1;SDS_P2;PMS_P1;PMS_P2;Temp;Humidity;BMP_temperature;BMP_pressure;BME280_temperature;BME280_humidity;BME280_pressure;Samples;Min_cycle;Max_cycle;Signal;HPM_P1;HPM_P2
2021/12/28 01:35:21;;;;;;;7.55;4.65;;;;;;;-6.82;67.60;99932.94;4864223;29;20060;-72
2021/12/28 01:37:46;;;;;;;8.23;5.32;;;;;;;-6.84;67.75;99939.84;4864454;29;20049;-75
2021/12/28 01:40:17;;;;;;;8.63;4.68;;;;;;;-6.78;68.18;99945.94;4865340;29;20582;-74
2021/12/28 01:42:55;;;;;;;11.43;6.20;;;;;;;-6.76;68.56;99943.31;4864867;29;20135;-75
2021/12/28 01:45:39;;;;;;;13.02;6.03;;;;;;;-6.75;68.31;99948.50;4863284;29;20534;-74
2021/12/28 01:48:06;;;;;;;11.35;6.70;;;;;;;-6.82;68.27;99949.34;4846693;29;20040;-74
2021/12/28 01:50:31;;;;;;;9.30;5.47;;;;;;;-6.84;68.12;99961.44;4862978;29;20044;-76
2021/12/28 01:52:56;;;;;;;13.30;6.75;;;;;;;-6.85;68.45;99948.47;4862864;29;20044;-73
2021/12/28 01:55:22;;;;;;;12.88;6.35;;;;;;;-6.84;68.18;99955.38;4846385;29;20067;-72
2021/12/28 01:57:47;;;;;;;10.52;6.20;;;;;;;-6.76;69.12;99959.72;4846207;29;20488;-72
2021/12/28 02:00:13;;;;;;;13.88;6.43;;;;;;;-6.75;68.28;99968.38;4863430;29;20415;-76
2021/12/28 02:02:37;;;;;;;17.13;6.93;;;;;;;-6.72;68.49;99958.03;4863028;29;20388;-76
2021/12/28 02:05:03;;;;;;;10.65;5.95;;;;;;;-6.68;68.56;99972.75;4863098;29;20063;-73
2021/12/28 02:07:28;;;;;;;13.15;6.20;;;;;;;-6.64;68.63;99954.59;4862716;29;20044;-72
2021/12/28 02:09:52;;;;;;;12.77;6.78;;;;;;;-6.64;68.98;99946.81;4862825;29;20055;-73
2021/12/28 02:12:17;;;;;;;11.65;5.90;;;;;;;-6.67;68.14;99958.91;4846917;29;20403;-73
2021/12/28 02:14:44;;;;;;;6.15;4.10;;;;;;;-6.61;68.30;99964.09;4847906;29;20470;-73
2021/12/28 02:17:09;;;;;;;9.27;5.32;;;;;;;-6.61;67.93;99969.28;4863988;29;20138;-70
2021/12/28 02:19:34;;;;;;;8.60;5.03;;;;;;;-6.64;68.53;99956.31;4845420;29;20052;-70
2021/12/28 02:21:59;;;;;;;8.57;5.35;;;;;;;-6.65;68.35;99964.94;4845217;29;20048;-69
2021/12/28 02:24:23;;;;;;;9.40;4.70;;;;;;;-6.64;68.70;99966.69;4863131;29;20091;-73
2021/12/28 02:26:49;;;;;;;7.00;4.43;;;;;;;-6.60;68.75;99966.69;4863178;29;20045;-73
2021/12/28 02:29:14;;;;;;;8.30;4.25;;;;;;;-6.58;68.17;99971.91;4846180;29;20052;-74
2021/12/28 02:31:39;;;;;;;6.97;4.55;;;;;;;-6.55;69.27;99977.09;4846642;29;20051;-74
2021/12/28 02:34:04;;;;;;;8.32;4.32;;;;;;;-6.54;68.53;99981.41;4831057;29;20052;-73
2021/12/28 02:36:29;;;;;;;9.25;5.57;;;;;;;-6.57;68.35;99975.34;4862907;29;20117;-75
2021/12/28 02:38:53;;;;;;;8.43;5.20;;;;;;;-6.62;68.54;99978.78;4862013;29;20127;-75
2021/12/28 02:41:18;;;;;;;9.18;4.55;;;;;;;-6.58;68.37;99977.09;4862246;29;20052;-74
2021/12/28 02:43:48;;;;;;;9.43;6.25;;;;;;;-6.60;67.72;99976.22;4861665;29;20044;-74
2021/12/28 02:46:12;;;;;;;7.78;5.28;;;;;;;-6.71;68.19;99988.28;4860165;29;20044;-75
2021/12/28 02:48:37;;;;;;;11.23;5.35;;;;;;;-6.75;67.73;99989.13;4834132;29;20049;-72
2021/12/28 02:51:07;;;;;;;10.50;5.07;;;;;;;-6.74;67.61;99993.44;4852961;29;20104;-72
2021/12/28 02:53:31;;;;;;;6.72;4.30;;;;;;;-6.69;68.33;99999.53;4844788;29;20100;-77
2021/12/28 02:55:57;;;;;;;9.05;4.85;;;;;;;-6.65;67.87;100003.84;4862197;29;20048;-71
2021/12/28 02:58:29;;;;;;;8.38;4.82;;;;;;;-6.67;67.55;100005.59;4845948;29;20041;-67
2021/12/28 03:01:10;;;;;;;7.35;4.55;;;;;;;-6.62;68.12;100001.25;4830467;29;20044;-68
2021/12/28 03:03:36;;;;;;;9.00;4.72;;;;;;;-6.68;67.28;99998.66;4845237;29;20044;-68
2021/12/28 03:06:04;;;;;;;8.23;4.72;;;;;;;-6.64;67.17;100000.38;4861983;29;20091;-68
2021/12/28 03:08:30;;;;;;;7.75;5.10;;;;;;;-6.67;66.89;100001.25;4861984;29;20059;-68
2021/12/28 03:10:55;;;;;;;10.15;5.30;;;;;;;-6.75;67.29;99997.75;4861877;29;20052;-68
2021/12/28 03:13:24;;;;;;;6.93;4.22;;;;;;;-6.69;66.79;99996.94;4861753;29;20112;-63
2021/12/28 03:15:49;;;;;;;10.57;5.72;;;;;;;-6.68;67.25;99999.53;4861653;29;20575;-65
2021/12/28 03:18:14;;;;;;;8.50;4.88;;;;;;;-6.68;66.75;99996.06;4861920;29;20068;-71
2021/12/28 03:20:39;;;;;;;7.65;4.13;;;;;;;-6.74;67.23;99999.50;4862068;29;20053;-65
2021/12/28 03:23:04;;;;;;;7.80;4.65;;;;;;;-6.77;67.10;100002.06;4829185;29;20044;-71
2021/12/28 03:25:30;;;;;;;9.75;5.15;;;;;;;-6.78;67.70;99999.50;4843598;29;20041;-70
2021/12/28 03:27:55;;;;;;;7.68;4.72;;;;;;;-6.80;67.06;100001.22;4826990;29;20053;-71
2021/12/28 03:30:19;;;;;;;11.77;6.22;;;;;;;-6.87;67.29;100002.03;4826801;29;20060;-69
2021/12/28 11:36:56;;;;;;;10.95;6.68;;;;;;;-4.83;60.25;100226.53;5667888;23;20080;-71
2021/12/28 11:39:28;;;;;;;11.55;5.50;;;;;;;-4.77;60.47;100227.41;4825482;29;20049;-69
2021/12/28 11:41:55;;;;;;;7.75;4.82;;;;;;;-4.81;60.39;100230.00;4842981;29;20049;-70
2021/12/28 11:44:21;;;;;;;7.75;5.05;;;;;;;-4.80;60.80;100227.41;4842867;29;20051;-69
2021/12/28 11:46:47;;;;;;;8.80;5.40;;;;;;;-4.90;60.40;100230.88;4842928;29;20052;-70
2021/12/28 11:49:14;;;;;;;11.63;5.72;;;;;;;-4.91;60.73;100226.53;4844017;29;20838;-69
2021/12/28 11:51:46;;;;;;;9.77;5.78;;;;;;;-4.95;60.28;100227.41;4826954;29;20057;-69
2021/12/28 11:54:14;;;;;;;8.55;5.70;;;;;;;-5.03;60.65;100236.06;4844156;29;20415;-71
2021/12/28 11:56:44;;;;;;;9.07;5.82;;;;;;;-5.08;61.25;100243.88;4825709;29;20379;-69
2021/12/28 11:59:17;;;;;;;9.68;4.90;;;;;;;-5.12;61.13;100250.78;4844062;29;20045;-68
2021/12/28 12:02:01;;;;;;;9.60;5.38;;;;;;;-5.18;61.40;100249.91;4844622;29;20140;-77
2021/12/28 12:04:34;;;;;;;8.80;5.28;;;;;;;-5.25;61.57;100250.78;4812870;29;20049;-73
2021/12/28 12:07:12;;;;;;;8.00;5.00;;;;;;;-5.32;61.68;100270.69;4845404;29;20052;-72
2021/12/28 12:09:51;;;;;;;12.25;5.90;;;;;;;-5.42;61.57;100262.88;4843115;29;20057;-75
2021/12/28 12:12:16;;;;;;;8.85;5.40;;;;;;;-5.53;61.87;100279.25;4826757;29;20132;-75
2021/12/28 12:14:50;;;;;;;9.35;5.88;;;;;;;-5.63;62.54;100281.81;4826783;29;20128;-74
2021/12/28 12:17:31;;;;;;;9.93;5.55;;;;;;;-5.65;62.75;100278.38;4826187;29;20041;-74
2021/12/28 12:20:09;;;;;;;10.10;5.93;;;;;;;-5.71;62.67;100280.94;4841732;29;20049;-74
2021/12/28 12:22:39;;;;;;;9.55;5.75;;;;;;;-5.79;63.11;100280.03;4795367;29;20076;-75
2021/12/28 12:25:16;;;;;;;11.55;5.95;;;;;;;-5.80;63.80;100286.97;4842755;29;20112;-76
2021/12/28 12:28:00;;;;;;;10.02;5.80;;;;;;;-5.81;63.82;100284.34;4825399;29;20563;-75
2021/12/28 12:30:24;;;;;;;13.05;8.05;;;;;;;-5.86;63.39;100282.59;4827836;29;20053;-75
2021/12/28 12:32:55;;;;;;;10.98;7.03;;;;;;;-5.92;64.17;100281.75;4846507;29;20044;-75
2021/12/28 12:35:35;;;;;;;19.52;10.88;;;;;;;-6.04;65.63;100285.16;4846663;29;20049;-75
2021/12/28 12:38:21;;;;;;;18.45;10.02;;;;;;;-6.06;64.55;100276.47;4829263;29;20117;-74
2021/12/28 12:40:59;;;;;;;15.75;8.73;;;;;;;-6.12;65.68;100275.59;4845914;29;20474;-75
2021/12/28 12:43:45;;;;;;;15.20;8.40;;;;;;;-6.14;65.86;100285.09;4829564;29;20055;-74
2021/12/28 12:46:26;;;;;;;15.02;8.45;;;;;;;-6.15;65.96;100283.34;4828632;29;20575;-76
2021/12/28 12:48:53;;;;;;;13.82;7.20;;;;;;;-6.20;66.17;100287.63;4846520;29;20072;-74
2021/12/28 12:51:21;;;;;;;18.10;9.00;;;;;;;-6.25;67.12;100293.66;4814248;29;20247;-74
2021/12/28 12:53:46;;;;;;;23.58;9.45;;;;;;;-6.27;68.12;100284.13;4829327;29;20041;-74
2021/12/28 12:56:18;;;;;;;13.25;8.15;;;;;;;-6.21;67.19;100299.75;4846090;29;20056;-73
2021/12/28 12:58:50;;;;;;;14.30;7.60;;;;;;;-6.22;67.20;100297.16;4816590;29;20048;-78
2021/12/28 13:01:27;;;;;;;13.77;7.97;;;;;;;-6.20;67.56;100292.81;4847502;29;20059;-72
2021/12/28 13:03:54;;;;;;;13.77;7.63;;;;;;;-6.24;67.23;100302.31;4829755;29;20112;-67
2021/12/28 13:06:41;;;;;;;18.67;9.20;;;;;;;-6.22;68.44;100304.94;4845620;29;20073;-66
2021/12/28 13:09:14;;;;;;;13.05;8.85;;;;;;;-6.21;68.22;100307.53;4845851;29;20055;-75
2021/12/28 13:11:41;;;;;;;14.45;7.93;;;;;;;-6.17;67.89;100304.09;4832085;29;20101;-75
2021/12/28 13:14:06;;;;;;;13.63;7.80;;;;;;;-6.13;68.47;100300.66;4830290;29;20045;-73
2021/12/28 13:16:33;;;;;;;12.75;7.28;;;;;;;-6.05;68.46;100303.28;4846039;29;20044;-74
2021/12/28 13:19:23;;;;;;;11.60;6.10;;;;;;;-6.03;67.36;100309.38;4833808;29;20469;-67
2021/12/28 13:22:15;;;;;;;14.90;8.02;;;;;;;-5.99;67.03;100304.22;4846852;29;20048;-70
2021/12/28 13:24:49;;;;;;;13.02;7.82;;;;;;;-6.07;68.07;100300.69;4845321;29;20139;-69
2021/12/28 13:27:17;;;;;;;18.98;8.80;;;;;;;-6.04;68.42;100305.91;4844954;29;20048;-69
2021/12/28 13:30:01;;;;;;;16.23;8.13;;;;;;;-6.00;68.55;100310.25;4845180;29;20057;-68
2021/12/28 13:32:36;;;;;;;13.90;7.90;;;;;;;-5.93;68.54;100306.84;4845068;29;20052;-68
2021/12/28 13:35:13;;;;;;;12.82;7.90;;;;;;;-5.89;68.26;100310.31;4846334;29;20131;-68
2021/12/28 13:38:00;;;;;;;18.58;10.30;;;;;;;-5.92;68.29;100308.56;4844931;29;20045;-70
2021/12/28 13:40:38;;;;;;;18.63;8.00;;;;;;;-5.87;67.52;100304.22;4844512;29;20120;-70
2021/12/28 13:43:06;;;;;;;15.60;8.57;;;;;;;-5.99;68.35;100301.63;4845546;29;20521;-70
2021/12/28 13:45:33;;;;;;;14.50;8.10;;;;;;;-6.05;68.36;100298.09;4828297;29;20053;-68
2021/12/28 13:48:00;;;;;;;18.13;7.90;;;;;;;-6.03;67.47;100309.38;4845071;29;20049;-67
2021/12/28 13:50:25;;;;;;;15.55;8.25;;;;;;;-6.04;67.94;100311.09;4844992;29;20067;-69
2021/12/28 13:52:57;;;;;;;16.65;8.35;;;;;;;-6.05;67.53;100309.34;4845109;29;20103;-68
2021/12/28 13:55:30;;;;;;;18.65;9.10;;;;;;;-6.11;67.74;100313.66;4828511;29;20064;-69
2021/12/28 13:57:55;;;;;;;16.33;8.25;;;;;;;-6.19;67.89;100315.31;4844763;29;20045;-66
2021/12/28 14:00:23;;;;;;;20.23;11.00;;;;;;;-6.21;69.27;100317.06;4845137;29;20488;-67
2021/12/28 14:02:54;;;;;;;17.40;9.15;;;;;;;-6.17;68.83;100319.66;4846001;29;20053;-67
2021/12/28 14:05:19;;;;;;;15.27;8.57;;;;;;;-6.12;68.80;100315.38;4845783;29;20045;-66
2021/12/28 14:07:44;;;;;;;15.85;8.68;;;;;;;-6.13;68.54;100323.16;4828039;29;20519;-68
2021/12/28 14:10:09;;;;;;;16.30;9.88;;;;;;;-6.13;68.98;100324.03;4845486;29;20534;-66
2021/12/28 14:12:35;;;;;;;15.52;9.55;;;;;;;-6.10;68.75;100328.38;4813534;29;20052;-67
2021/12/28 14:14:59;;;;;;;17.33;8.75;;;;;;;-6.09;68.79;100328.34;4828226;29;20102;-69
2021/12/28 14:17:28;;;;;;;21.25;11.40;;;;;;;-6.00;68.25;100323.25;4813618;29;20041;-69
2021/12/28 14:19:59;;;;;;;20.98;10.32;;;;;;;-6.00;68.07;100322.38;4829474;29;20053;-71
2021/12/28 14:22:24;;;;;;;20.80;8.95;;;;;;;-6.05;68.15;100313.69;4828451;29;20053;-72
2021/12/28 14:24:54;;;;;;;18.45;10.77;;;;;;;-6.04;67.98;100315.41;4828228;29;20061;-69
2021/12/28 14:27:32;;;;;;;22.10;11.38;;;;;;;-6.07;67.67;100312.78;4844140;29;20059;-65
2021/12/28 14:30:00;;;;;;;28.42;12.90;;;;;;;-6.16;68.29;100307.56;4844968;29;20056;-66
2021/12/28 14:32:40;;;;;;;26.38;10.90;;;;;;;-6.17;68.48;100308.41;4844632;29;20075;-64
2021/12/28 14:35:08;;;;;;;22.63;11.85;;;;;;;-6.29;68.66;100307.47;4843303;29;20074;-69
2021/12/28 14:37:36;;;;;;;20.27;11.10;;;;;;;-6.29;68.66;100307.47;4846068;29;20049;-69
2021/12/28 14:40:13;;;;;;;23.08;9.57;;;;;;;-6.21;67.81;100296.28;4844890;29;20057;-68
2021/12/28 14:42:38;;;;;;;29.23;15.07;;;;;;;-6.41;68.42;100301.31;4827415;29;20101;-68
2021/12/28 14:45:09;;;;;;;24.75;14.70;;;;;;;-6.54;70.16;100307.28;4826872;29;20044;-67
2021/12/28 14:47:36;;;;;;;30.17;15.57;;;;;;;-6.63;70.87;100306.34;4826355;29;20497;-67
2021/12/28 14:50:29;;;;;;;20.25;12.15;;;;;;;-6.57;71.49;100321.09;4844858;29;20088;-66
2021/12/28 14:53:04;;;;;;;25.20;13.93;;;;;;;-6.55;71.42;100311.63;4822733;29;20152;-68
2021/12/28 14:55:32;;;;;;;21.83;12.50;;;;;;;-6.53;71.59;100322.84;4825766;29;20129;-68
2021/12/28 14:57:59;;;;;;;22.23;12.98;;;;;;;-6.49;71.37;100335.00;4845176;29;20075;-68
2021/12/28 15:00:31;;;;;;;26.33;13.43;;;;;;;-6.43;71.91;100336.78;4826129;29;20535;-67
2021/12/28 15:03:03;;;;;;;19.40;9.80;;;;;;;-6.34;71.06;100327.34;4826611;29;20135;-67
2021/12/28 15:05:39;;;;;;;23.15;13.55;;;;;;;-6.35;70.36;100337.69;4826119;29;20055;-67
2021/12/28 15:08:08;;;;;;;20.90;10.73;;;;;;;-6.40;71.01;100329.88;4842693;29;20079;-67
2021/12/28 15:10:35;;;;;;;16.52;9.75;;;;;;;-6.30;69.59;100328.22;4842914;29;20129;-68
2021/12/28 15:13:05;;;;;;;28.38;13.75;;;;;;;-6.41;70.33;100342.81;4842592;29;20048;-67
2021/12/28 15:15:32;;;;;;;31.48;12.13;;;;;;;-6.50;70.92;100330.66;4825566;29;20423;-68
2021/12/28 15:17:57;;;;;;;23.60;11.93;;;;;;;-6.44;70.32;100324.66;4810510;29;20515;-65
2021/12/28 15:20:23;;;;;;;19.98;10.68;;;;;;;-6.42;71.04;100326.41;4842821;29;20127;-67
2021/12/28 15:22:47;;;;;;;21.23;9.65;;;;;;;-6.41;70.39;100320.34;4843205;29;20045;-66
2021/12/28 15:25:19;;;;;;;21.60;8.98;;;;;;;-6.34;70.16;100326.47;4811868;29;20109;-69
2021/12/28 15:27:44;;;;;;;22.70;12.30;;;;;;;-6.46;70.15;100324.66;4845048;29;20088;-69
2021/12/28 15:30:15;;;;;;;20.80;9.65;;;;;;;-6.49;70.88;100323.75;4844661;29;20060;-68
2021/12/28 15:33:06;;;;;;;24.00;11.23;;;;;;;-6.51;71.06;100328.91;4830999;29;20056;-66
2021/12/28 15:35:34;;;;;;;13.60;8.15;;;;;;;-6.50;71.07;100324.59;4843554;29;20048;-66
2021/12/28 15:38:02;;;;;;;23.40;10.80;;;;;;;-6.51;70.17;100341.03;4811847;29;20045;-75
2021/12/28 15:40:37;;;;;;;21.23;11.15;;;;;;;-6.55;70.91;100342.75;4845000;29;20092;-74
2021/12/28 15:43:03;;;;;;;19.40;9.55;;;;;;;-6.46;70.58;100323.78;4844745;29;20123;-71
2021/12/28 15:45:28;;;;;;;35.65;17.27;;;;;;;-6.65;71.22;100331.41;4843571;29;20048;-73
2021/12/28 15:47:53;;;;;;;27.05;14.10;;;;;;;-6.77;72.32;100327.84;4846501;29;20059;-69
2021/12/28 15:50:18;;;;;;;19.63;10.07;;;;;;;-6.68;71.36;100331.41;4826796;29;20310;-70
2021/12/28 15:52:43;;;;;;;22.02;11.10;;;;;;;-6.67;71.74;100327.06;4842967;29;20389;-70
2021/12/28 15:55:08;;;;;;;25.48;14.63;;;;;;;-6.79;72.30;100329.56;4826278;29;20934;-75
2021/12/28 15:57:33;;;;;;;27.65;14.18;;;;;;;-6.90;73.15;100337.22;4828665;29;20045;-73
2021/12/28 15:59:58;;;;;;;40.85;14.63;;;;;;;-6.92;74.88;100349.31;4846935;29;20133;-73
2021/12/28 16:02:24;;;;;;;22.25;10.77;;;;;;;-6.79;73.50;100342.53;4828812;29;20052;-68
2021/12/28 16:04:49;;;;;;;24.95;12.48;;;;;;;-6.77;73.97;100338.22;4844522;29;20052;-69
2021/12/28 16:07:17;;;;;;;24.63;11.10;;;;;;;-6.61;72.71;100333.16;4844263;29;20056;-67
2021/12/28 16:09:41;;;;;;;27.08;13.65;;;;;;;-6.66;72.63;100329.66;4844795;29;20053;-69
2021/12/28 16:12:09;;;;;;;30.10;15.20;;;;;;;-6.70;73.37;100337.41;4843571;29;20059;-72
2021/12/28 16:14:34;;;;;;;32.55;13.52;;;;;;;-6.71;73.02;100341.72;4845529;29;20107;-70
2021/12/28 16:17:00;;;;;;;32.95;13.68;;;;;;;-6.62;72.87;100334.03;4844182;29;20052;-69
2021/12/28 16:19:25;;;;;;;37.17;17.48;;;;;;;-6.66;72.60;100334.84;4827173;29;20045;-71
2021/12/28 16:21:50;;;;;;;22.88;12.50;;;;;;;-6.64;73.52;100342.63;4844648;29;20198;-69
2021/12/28 16:24:18;;;;;;;25.38;13.43;;;;;;;-6.63;73.28;100334.88;4843282;29;20435;-71
2021/12/28 16:26:42;;;;;;;27.15;13.23;;;;;;;-6.62;73.32;100335.75;4842236;29;20051;-71
2021/12/28 16:29:07;;;;;;;22.70;11.05;;;;;;;-6.58;73.12;100332.34;4844063;29;20053;-71
2021/12/28 16:31:32;;;;;;;27.75;14.30;;;;;;;-6.54;73.04;100331.47;4843918;29;20045;-70
2021/12/28 16:33:57;;;;;;;24.80;11.88;;;;;;;-6.47;72.04;100329.81;4828541;29;20084;-71
2021/12/28 16:36:23;;;;;;;26.88;14.32;;;;;;;-6.58;72.31;100331.47;4828856;29;20049;-68
2021/12/28 16:38:51;;;;;;;21.58;12.15;;;;;;;-6.58;72.81;100342.72;4826748;29;20064;-68
2021/12/28 16:41:23;;;;;;;24.27;11.70;;;;;;;-6.48;72.72;100328.09;4827406;29;20195;-69
2021/12/28 16:43:48;;;;;;;26.23;14.35;;;;;;;-6.54;71.91;100326.28;4843017;29;20272;-70
2021/12/28 16:46:13;;;;;;;27.52;12.95;;;;;;;-6.60;72.77;100334.91;4842388;29;20132;-69
2021/12/28 16:48:40;;;;;;;23.88;11.70;;;;;;;-6.63;72.52;100336.59;4844366;29;20068;-70
2021/12/28 16:51:05;;;;;;;23.05;11.85;;;;;;;-6.66;73.23;100329.66;4826663;29;20061;-68
2021/12/28 16:53:30;;;;;;;23.05;12.10;;;;;;;-6.67;72.99;100338.31;4843010;29;20069;-68
2021/12/28 16:55:57;;;;;;;22.05;11.45;;;;;;;-6.69;72.70;100328.78;4843791;29;20049;-69
2021/12/28 16:58:24;;;;;;;24.35;12.15;;;;;;;-6.77;72.96;100328.69;4826530;29;20508;-68
2021/12/28 17:00:52;;;;;;;23.25;12.95;;;;;;;-6.89;73.48;100336.38;4843275;29;20049;-68
2021/12/28 17:03:18;;;;;;;28.27;13.57;;;;;;;-6.97;73.26;100336.28;4843286;29;20049;-69
2021/12/28 17:05:42;;;;;;;25.02;15.38;;;;;;;-7.01;73.67;100342.31;4842579;29;20512;-66
2021/12/28 17:08:11;;;;;;;28.73;14.27;;;;;;;-7.03;74.48;100333.66;4841217;29;20539;-68
2021/12/28 17:10:38;;;;;;;25.05;13.48;;;;;;;-6.87;73.63;100326.88;4841811;29;20048;-66
2021/12/28 17:13:03;;;;;;;25.58;14.85;;;;;;;-7.04;74.19;100336.22;4825137;29;20156;-66
2021/12/28 17:15:28;;;;;;;23.08;14.07;;;;;;;-7.08;74.93;100340.50;4841724;29;20048;-69
2021/12/28 17:17:52;;;;;;;31.08;14.02;;;;;;;-7.12;74.17;100336.16;4813149;29;20041;-70
2021/12/28 17:20:18;;;;;;;31.75;14.13;;;;;;;-7.15;74.79;100333.50;4844661;29;20048;-70
2021/12/28 17:22:44;;;;;;;23.25;13.85;;;;;;;-7.16;75.21;100342.13;4845114;29;20097;-70
2021/12/28 17:25:11;;;;;;;29.33;14.52;;;;;;;-7.17;75.54;100334.34;4845135;29;20061;-69
2021/12/28 17:27:36;;;;;;;25.42;10.27;;;;;;;-7.16;74.69;100326.59;4845211;29;20116;-67
2021/12/28 17:30:01;;;;;;;25.50;14.27;;;;;;;-7.18;74.98;100333.47;4828764;29;20135;-68
2021/12/28 17:32:27;;;;;;;23.70;12.43;;;;;;;-7.15;74.76;100328.34;4845215;29;20941;-71
2021/12/28 17:34:54;;;;;;;25.13;10.20;;;;;;;-7.02;73.73;100325.03;4828536;29;20048;-69
2021/12/28 17:37:21;;;;;;;34.83;17.45;;;;;;;-7.26;74.35;100324.75;4828624;29;20053;-70
2021/12/28 17:39:46;;;;;;;35.72;16.98;;;;;;;-7.37;75.04;100327.22;4828604;29;20546;-71
2021/12/28 17:42:11;;;;;;;35.58;16.58;;;;;;;-7.41;74.81;100324.56;4828288;29;20060;-72
2021/12/28 17:44:36;;;;;;;22.23;12.98;;;;;;;-7.40;75.36;100332.38;4828237;29;20041;-66
2021/12/28 17:47:02;;;;;;;29.10;15.75;;;;;;;-7.44;75.63;100332.31;4845063;29;20123;-70
2021/12/28 17:49:29;;;;;;;39.42;16.08;;;;;;;-7.49;75.50;100336.56;4845332;29;20071;-69
2021/12/28 17:51:54;;;;;;;33.38;13.90;;;;;;;-7.48;76.19;100338.31;4845103;29;20049;-70
2021/12/28 17:54:19;;;;;;;21.40;11.70;;;;;;;-7.42;75.61;100334.06;4844713;29;20588;-71
2021/12/28 17:56:43;;;;;;;29.55;13.60;;;;;;;-7.41;74.90;100332.34;4844606;29;20089;-68
2021/12/28 17:59:08;;;;;;;24.50;13.10;;;;;;;-7.47;74.05;100334.88;4844713;29;20507;-67
2021/12/28 18:01:33;;;;;;;29.05;14.50;;;;;;;-7.56;75.63;100329.59;4844137;29;20504;-70
2021/12/28 18:03:57;;;;;;;23.35;12.13;;;;;;;-7.58;75.01;100337.34;4844311;29;20781;-66
2021/12/28 18:06:23;;;;;;;26.42;14.25;;;;;;;-7.60;75.19;100318.31;4826375;29;20072;-70
2021/12/28 18:08:49;;;;;;;33.60;16.25;;;;;;;-7.66;75.94;100323.41;4827212;29;20416;-75
2021/12/28 18:11:14;;;;;;;25.05;14.73;;;;;;;-7.68;76.39;100314.78;4844491;29;20037;-71
2021/12/28 18:13:38;;;;;;;29.55;14.30;;;;;;;-7.67;76.48;100319.09;4811572;29;20056;-67
2021/12/28 18:16:03;;;;;;;20.00;12.43;;;;;;;-7.65;77.04;100326.88;4843860;29;20106;-70
2021/12/28 18:18:28;;;;;;;29.02;14.70;;;;;;;-7.64;76.26;100324.31;4827788;29;20044;-68
2021/12/28 18:20:55;;;;;;;52.35;21.05;;;;;;;-7.71;76.45;100328.56;4811588;29;20048;-70
2021/12/28 18:23:21;;;;;;;30.15;15.73;;;;;;;-7.69;76.93;100323.41;4843412;29;20041;-71
2021/12/28 18:25:48;;;;;;;27.13;12.23;;;;;;;-7.68;75.80;100319.97;4828984;29;20055;-70
2021/12/28 18:28:15;;;;;;;31.35;15.27;;;;;;;-7.70;76.01;100317.34;4844391;29;20084;-69
2021/12/28 18:30:41;;;;;;;27.15;13.68;;;;;;;-7.70;76.71;100319.94;4843295;29;20037;-68
2021/12/28 18:33:13;;;;;;;33.58;16.23;;;;;;;-7.70;76.15;100322.53;4843822;29;20131;-69
2021/12/28 18:35:40;;;;;;;34.65;15.88;;;;;;;-7.74;76.50;100327.63;4843697;29;20155;-70
2021/12/28 18:38:08;;;;;;;28.67;16.00;;;;;;;-7.76;77.53;100321.56;4826468;29;20076;-70
2021/12/28 18:40:35;;;;;;;28.85;14.05;;;;;;;-7.78;76.99;100324.13;4827209;29;20060;-69
2021/12/28 18:43:06;;;;;;;25.27;12.50;;;;;;;-7.72;76.96;100329.41;4843521;29;20423;-70
2021/12/28 18:45:33;;;;;;;26.13;12.20;;;;;;;-7.67;76.31;100328.59;4843386;29;20060;-66
2021/12/28 18:47:58;;;;;;;20.02;12.00;;;;;;;-7.72;76.18;100333.69;4843651;29;20060;-70
2021/12/28 18:50:23;;;;;;;24.88;13.32;;;;;;;-7.74;75.74;100330.22;4843769;29;20037;-69
2021/12/28 18:52:48;;;;;;;15.43;8.40;;;;;;;-7.70;76.06;100326.84;4795956;29;20049;-70
2021/12/28 18:55:13;;;;;;;23.48;12.38;;;;;;;-7.74;75.94;100333.69;4829399;29;20049;-70
2021/12/28 18:57:38;;;;;;;23.65;13.18;;;;;;;-7.78;76.02;100331.03;4812289;29;20044;-70
2021/12/28 19:00:10;;;;;;;28.30;12.02;;;;;;;-7.77;75.94;100331.03;4826818;29;20056;-66
2021/12/28 19:02:35;;;;;;;21.88;12.15;;;;;;;-7.74;75.46;100335.41;4827016;29;20056;-65
2021/12/28 19:05:01;;;;;;;16.52;10.07;;;;;;;-7.76;75.36;100327.59;4844627;29;20045;-70
2021/12/28 19:07:26;;;;;;;30.25;15.18;;;;;;;-7.80;75.06;100330.16;4843441;29;20040;-70
2021/12/28 19:09:50;;;;;;;34.63;17.75;;;;;;;-7.95;76.93;100333.41;4828154;29;20055;-70
2021/12/28 19:12:40;;;;;;;37.10;15.25;;;;;;;-7.91;76.86;100337.78;4829962;29;20080;-66
2021/12/28 19:15:08;;;;;;;21.88;9.20;;;;;;;-7.84;75.85;100334.41;4811637;29;20575;-69
2021/12/28 19:17:33;;;;;;;33.45;14.15;;;;;;;-7.74;75.68;100336.28;4811451;29;20091;-72
2021/12/28 19:19:58;;;;;;;29.50;13.43;;;;;;;-7.71;75.17;100338.91;4844325;29;20041;-75
2021/12/28 19:22:22;;;;;;;23.85;14.18;;;;;;;-7.75;76.42;100352.66;4846055;29;20071;-77
2021/12/28 19:24:47;;;;;;;25.88;12.13;;;;;;;-7.69;76.69;100341.53;4813552;29;20504;-77
2021/12/28 19:27:13;;;;;;;24.80;14.18;;;;;;;-7.57;76.23;100346.84;4814267;29;20515;-77
2021/12/28 19:29:38;;;;;;;28.40;14.10;;;;;;;-7.54;75.65;100356.34;4851040;29;20076;-78
2021/12/28 19:32:03;;;;;;;20.70;10.63;;;;;;;-7.53;76.03;100350.31;4850835;29;20104;-79
2021/12/28 19:34:29;;;;;;;31.05;16.20;;;;;;;-7.64;77.40;100354.50;4812980;29;20045;-79
2021/12/28 19:36:53;;;;;;;14.20;8.23;;;;;;;-7.52;76.98;100354.66;4815318;29;20105;-76
2021/12/28 19:39:23;;;;;;;28.95;14.23;;;;;;;-7.52;76.81;100352.06;4829149;29;20084;-77
2021/12/28 19:41:48;;;;;;;34.72;17.08;;;;;;;-7.50;75.66;100356.41;4828078;29;20072;-77
2021/12/28 19:44:14;;;;;;;16.45;7.20;;;;;;;-7.40;75.38;100370.34;4843244;29;20049;-78
2021/12/28 19:46:39;;;;;;;26.02;11.70;;;;;;;-7.55;75.43;100368.44;4843267;29;20052;-79
2021/12/28 19:49:05;;;;;;;28.20;14.32;;;;;;;-7.61;75.61;100377.84;4826532;29;20048;-78
2021/12/28 19:51:33;;;;;;;28.80;11.98;;;;;;;-7.70;75.74;100363.94;4811291;29;20049;-79
2021/12/28 19:53:59;;;;;;;21.63;11.65;;;;;;;-7.68;75.43;100360.50;4826328;29;20127;-78
2021/12/28 19:56:24;;;;;;;30.20;14.13;;;;;;;-7.63;75.95;100359.69;4826339;29;20397;-78
2021/12/28 19:58:52;;;;;;;30.92;13.10;;;;;;;-7.67;74.92;100367.44;4825970;29;20464;-76
2021/12/28 20:01:20;;;;;;;35.13;15.50;;;;;;;-7.76;75.94;100362.97;4810753;29;20393;-76
2021/12/28 20:03:46;;;;;;;28.80;12.50;;;;;;;-7.80;75.83;100376.75;4842957;29;20067;-78
2021/12/28 20:06:12;;;;;;;24.10;9.88;;;;;;;-7.72;75.37;100376.00;4842813;29;20044;-78
2021/12/28 20:08:39;;;;;;;28.40;11.63;;;;;;;-7.81;75.95;100378.47;4826450;29;20453;-76
2021/12/28 20:11:04;;;;;;;25.92;12.18;;;;;;;-7.79;75.50;100366.41;4826469;29;20081;-78
2021/12/28 20:13:31;;;;;;;27.25;11.13;;;;;;;-7.81;76.08;100372.41;4826655;29;20052;-78
2021/12/28 20:15:58;;;;;;;23.52;11.50;;;;;;;-7.77;74.70;100374.16;4811605;29;20040;-76
2021/12/28 20:18:23;;;;;;;30.50;12.95;;;;;;;-7.99;75.69;100385.94;4848490;29;20509;-77
2021/12/28 20:20:49;;;;;;;20.65;8.50;;;;;;;-7.91;75.77;100386.94;4850144;29;20083;-75
2021/12/28 20:23:19;;;;;;;25.40;12.73;;;;;;;-7.89;75.07;100387.81;4851028;29;20045;-75
2021/12/28 20:25:44;;;;;;;24.75;10.60;;;;;;;-7.99;74.69;100391.13;4851031;29;20135;-74
2021/12/28 20:28:10;;;;;;;32.30;14.25;;;;;;;-8.17;74.57;100398.59;4846025;29;20139;-74
2021/12/28 20:30:35;;;;;;;37.22;17.40;;;;;;;-8.40;75.90;100400.84;4846438;29;20053;-74
2021/12/28 20:33:00;;;;;;;25.50;12.10;;;;;;;-8.31;75.78;100393.22;4829484;29;20041;-75
2021/12/28 20:35:27;;;;;;;37.30;13.73;;;;;;;-8.37;75.92;100395.75;4830167;29;20139;-77
2021/12/28 20:37:53;;;;;;;25.33;11.57;;;;;;;-8.40;77.24;100397.41;4828063;29;20057;-75
2021/12/28 20:40:18;;;;;;;43.25;15.60;;;;;;;-8.40;77.19;100393.09;4811789;29;20092;-70
2021/12/28 20:42:47;;;;;;;11.95;6.20;;;;;;;-8.36;76.63;100404.38;4811038;29;20076;-71
2021/12/28 20:45:13;;;;;;;21.35;6.38;;;;;;;-8.32;75.50;100407.00;4825808;29;20441;-70
2021/12/28 20:47:41;;;;;;;17.98;10.75;;;;;;;-8.36;75.42;100401.78;4810524;29;20131;-71
2021/12/28 20:50:07;;;;;;;16.13;8.50;;;;;;;-8.32;75.53;100406.13;4810452;29;20053;-71
2021/12/28 20:52:33;;;;;;;12.75;6.43;;;;;;;-8.34;74.88;100397.47;4846064;29;20048;-71
2021/12/28 20:55:00;;;;;;;34.63;15.73;;;;;;;-8.64;74.80;100408.19;4798894;29;20045;-67
2021/12/28 20:57:25;;;;;;;42.70;15.93;;;;;;;-8.74;74.89;100411.44;4814806;29;20041;-67